Details for Ryanair at EGGW




Go Back


Latest METAR
Local Time

EGGW 221050Z AUTO 25008KT 9999 -RA BKN047/// //////CB 12/09 Q1019
22/09/2018, 12:07:55

Description
Results
Ryanair Logo
Number of Pilots based at EGGW
1 Pilots Based here
Number of Ryanair Flights Departed from EGGW
6 Flights Departed
Number of Ryanair Flights Arrived at EGGW
2 Flights Arrived
Number of Ryanair Schedules Departing from EGGW
36 Schedules
Number of Ryanair Schedules Arriving at EGGW
37 Schedules
Number of Ryanair Schedules Departing from EGGW availible today
15 Schedules Today
Number of Ryanair Schedules Arriving at EGGW availible today
15 Schedules Today
Average Landing Rate at EGGW
-198 fpm
Ryanair Average Landing Rate at EGGW
-112 fpm
Total Fuel Purchased at EGGW by Ryanair
20,712.84 kgs / 45,663.53 lbs

Pilots Based at EGGW


Pilot ID
Pilot Name
Pilot Rank
No. of Flights
No. of Flying Hours
Jorgen Kambskard
109
319.12
Content